sensor_id;sensor_type;location;lat;lon;timestamp;P1;durP1;ratioP1;P2;durP2;ratioP2
18076;SDS011;9165;45.714;11.362;2023-07-13T00:00:47;4.97;;;1.73;;
18076;SDS011;9165;45.714;11.362;2023-07-13T00:03:15;3.17;;;1.23;;
18076;SDS011;9165;45.714;11.362;2023-07-13T00:05:42;4.60;;;1.50;;
18076;SDS011;9165;45.714;11.362;2023-07-13T00:08:09;3.07;;;1.30;;
18076;SDS011;9165;45.714;11.362;2023-07-13T00:10:39;3.50;;;1.50;;
18076;SDS011;9165;45.714;11.362;2023-07-13T00:13:05;5.47;;;1.63;;
18076;SDS011;9165;45.714;11.362;2023-07-13T00:15:32;8.90;;;3.13;;
18076;SDS011;9165;45.714;11.362;2023-07-13T00:17:59;5.50;;;2.20;;
18076;SDS011;9165;45.714;11.362;2023-07-13T00:20:27;6.73;;;2.10;;
18076;SDS011;9165;45.714;11.362;2023-07-13T00:22:53;6.13;;;2.30;;
18076;SDS011;9165;45.714;11.362;2023-07-13T00:25:20;8.23;;;2.30;;
18076;SDS011;9165;45.714;11.362;2023-07-13T00:27:49;3.87;;;1.50;;
18076;SDS011;9165;45.714;11.362;2023-07-13T00:30:15;4.37;;;2.07;;
18076;SDS011;9165;45.714;11.362;2023-07-13T00:32:43;4.80;;;1.90;;
18076;SDS011;9165;45.714;11.362;2023-07-13T00:35:12;3.80;;;2.10;;
18076;SDS011;9165;45.714;11.362;2023-07-13T00:37:39;5.10;;;2.30;;
18076;SDS011;9165;45.714;11.362;2023-07-13T00:40:07;4.20;;;1.80;;
18076;SDS011;9165;45.714;11.362;2023-07-13T00:42:34;6.53;;;1.83;;
18076;SDS011;9165;45.714;11.362;2023-07-13T00:45:05;4.30;;;2.30;;
18076;SDS011;9165;45.714;11.362;2023-07-13T00:47:33;6.40;;;2.17;;
18076;SDS011;9165;45.714;11.362;2023-07-13T00:49:59;3.90;;;2.30;;
18076;SDS011;9165;45.714;11.362;2023-07-13T00:52:28;4.23;;;1.73;;
18076;SDS011;9165;45.714;11.362;2023-07-13T00:54:55;4.23;;;1.57;;
18076;SDS011;9165;45.714;11.362;2023-07-13T00:57:22;6.80;;;1.90;;
18076;SDS011;9165;45.714;11.362;2023-07-13T00:59:52;6.83;;;2.40;;
18076;SDS011;9165;45.714;11.362;2023-07-13T01:02:20;5.03;;;2.40;;
18076;SDS011;9165;45.714;11.362;2023-07-13T01:04:47;6.33;;;2.23;;
18076;SDS011;9165;45.714;11.362;2023-07-13T01:07:14;5.17;;;2.40;;
18076;SDS011;9165;45.714;11.362;2023-07-13T01:09:42;5.60;;;2.60;;
18076;SDS011;9165;45.714;11.362;2023-07-13T01:12:10;4.07;;;2.43;;
18076;SDS011;9165;45.714;11.362;2023-07-13T01:14:39;7.03;;;2.67;;
18076;SDS011;9165;45.714;11.362;2023-07-13T01:17:08;3.37;;;2.60;;
18076;SDS011;9165;45.714;11.362;2023-07-13T01:19:36;7.00;;;2.80;;
18076;SDS011;9165;45.714;11.362;2023-07-13T01:22:06;3.47;;;2.50;;
18076;SDS011;9165;45.714;11.362;2023-07-13T01:24:34;5.53;;;2.53;;
18076;SDS011;9165;45.714;11.362;2023-07-13T01:27:02;5.87;;;2.57;;
18076;SDS011;9165;45.714;11.362;2023-07-13T01:29:29;7.03;;;2.60;;
18076;SDS011;9165;45.714;11.362;2023-07-13T01:31:56;6.50;;;2.40;;
18076;SDS011;9165;45.714;11.362;2023-07-13T01:34:23;7.37;;;3.20;;
18076;SDS011;9165;45.714;11.362;2023-07-13T01:36:49;6.33;;;3.10;;
18076;SDS011;9165;45.714;11.362;2023-07-13T01:39:20;3.40;;;2.33;;
18076;SDS011;9165;45.714;11.362;2023-07-13T01:41:47;7.60;;;2.87;;
18076;SDS011;9165;45.714;11.362;2023-07-13T01:44:13;8.13;;;2.93;;
18076;SDS011;9165;45.714;11.362;2023-07-13T01:46:40;9.90;;;2.80;;
18076;SDS011;9165;45.714;11.362;2023-07-13T01:49:06;6.57;;;2.97;;
18076;SDS011;9165;45.714;11.362;2023-07-13T01:51:33;4.77;;;2.77;;
18076;SDS011;9165;45.714;11.362;2023-07-13T01:53:59;6.53;;;2.90;;
18076;SDS011;9165;45.714;11.362;2023-07-13T01:56:27;4.80;;;3.10;;
18076;SDS011;9165;45.714;11.362;2023-07-13T01:58:54;6.57;;;2.93;;
18076;SDS011;9165;45.714;11.362;2023-07-13T02:01:22;8.67;;;3.37;;
18076;SDS011;9165;45.714;11.362;2023-07-13T02:03:49;6.77;;;3.17;;
18076;SDS011;9165;45.714;11.362;2023-07-13T02:06:15;4.07;;;2.53;;
18076;SDS011;9165;45.714;11.362;2023-07-13T02:08:42;4.93;;;2.80;;
18076;SDS011;9165;45.714;11.362;2023-07-13T02:11:08;5.03;;;2.77;;
18076;SDS011;9165;45.714;11.362;2023-07-13T02:13:37;7.50;;;2.50;;
18076;SDS011;9165;45.714;11.362;2023-07-13T02:16:03;9.47;;;2.70;;
18076;SDS011;9165;45.714;11.362;2023-07-13T02:18:30;4.17;;;2.27;;
18076;SDS011;9165;45.714;11.362;2023-07-13T02:20:57;4.10;;;1.97;;
18076;SDS011;9165;45.714;11.362;2023-07-13T02:23:23;5.03;;;2.30;;
18076;SDS011;9165;45.714;11.362;2023-07-13T02:25:53;3.80;;;2.40;;
18076;SDS011;9165;45.714;11.362;2023-07-13T02:28:20;8.60;;;2.43;;
18076;SDS011;9165;45.714;11.362;2023-07-13T02:30:49;3.60;;;2.20;;
18076;SDS011;9165;45.714;11.362;2023-07-13T02:33:15;5.27;;;2.20;;
18076;SDS011;9165;45.714;11.362;2023-07-13T02:35:42;4.03;;;1.93;;
18076;SDS011;9165;45.714;11.362;2023-07-13T02:38:09;4.63;;;2.00;;
18076;SDS011;9165;45.714;11.362;2023-07-13T02:40:36;3.20;;;1.73;;
18076;SDS011;9165;45.714;11.362;2023-07-13T02:43:03;2.20;;;1.77;;
18076;SDS011;9165;45.714;11.362;2023-07-13T02:45:30;3.87;;;1.90;;
18076;SDS011;9165;45.714;11.362;2023-07-13T02:47:58;5.20;;;1.90;;
18076;SDS011;9165;45.714;11.362;2023-07-13T02:50:25;3.43;;;1.50;;
18076;SDS011;9165;45.714;11.362;2023-07-13T02:52:51;4.57;;;1.27;;
18076;SDS011;9165;45.714;11.362;2023-07-13T02:55:18;4.40;;;1.20;;
18076;SDS011;9165;45.714;11.362;2023-07-13T02:57:44;4.93;;;1.77;;
18076;SDS011;9165;45.714;11.362;2023-07-13T03:00:11;5.60;;;1.73;;
18076;SDS011;9165;45.714;11.362;2023-07-13T03:02:38;2.20;;;1.83;;
18076;SDS011;9165;45.714;11.362;2023-07-13T03:05:07;4.20;;;1.60;;
18076;SDS011;9165;45.714;11.362;2023-07-13T03:07:35;2.53;;;1.60;;
18076;SDS011;9165;45.714;11.362;2023-07-13T03:10:02;6.10;;;2.10;;
18076;SDS011;9165;45.714;11.362;2023-07-13T03:12:29;5.73;;;1.50;;
18076;SDS011;9165;45.714;11.362;2023-07-13T03:14:56;6.80;;;1.60;;
18076;SDS011;9165;45.714;11.362;2023-07-13T03:17:23;5.23;;;1.57;;
18076;SDS011;9165;45.714;11.362;2023-07-13T03:19:50;3.63;;;1.60;;
18076;SDS011;9165;45.714;11.362;2023-07-13T03:22:18;3.97;;;1.77;;
18076;SDS011;9165;45.714;11.362;2023-07-13T03:24:45;2.20;;;1.63;;
18076;SDS011;9165;45.714;11.362;2023-07-13T03:27:11;1.50;;;1.40;;
18076;SDS011;9165;45.714;11.362;2023-07-13T03:29:38;3.63;;;1.30;;
18076;SDS011;9165;45.714;11.362;2023-07-13T03:32:05;1.97;;;1.37;;
18076;SDS011;9165;45.714;11.362;2023-07-13T03:34:32;6.30;;;1.30;;
18076;SDS011;9165;45.714;11.362;2023-07-13T03:36:59;2.90;;;1.50;;
18076;SDS011;9165;45.714;11.362;2023-07-13T03:39:27;2.20;;;1.83;;
18076;SDS011;9165;45.714;11.362;2023-07-13T03:41:53;7.87;;;2.20;;
18076;SDS011;9165;45.714;11.362;2023-07-13T03:44:20;2.43;;;1.53;;
18076;SDS011;9165;45.714;11.362;2023-07-13T03:46:47;3.90;;;1.30;;
18076;SDS011;9165;45.714;11.362;2023-07-13T03:49:14;4.63;;;1.60;;
18076;SDS011;9165;45.714;11.362;2023-07-13T03:51:41;5.60;;;1.67;;
18076;SDS011;9165;45.714;11.362;2023-07-13T03:54:08;7.37;;;1.50;;
18076;SDS011;9165;45.714;11.362;2023-07-13T03:56:36;7.77;;;1.27;;
18076;SDS011;9165;45.714;11.362;2023-07-13T03:59:02;2.77;;;1.30;;
18076;SDS011;9165;45.714;11.362;2023-07-13T04:01:29;3.37;;;1.60;;
18076;SDS011;9165;45.714;11.362;2023-07-13T04:03:56;3.87;;;1.43;;
18076;SDS011;9165;45.714;11.362;2023-07-13T04:06:25;3.93;;;1.53;;
18076;SDS011;9165;45.714;11.362;2023-07-13T04:08:53;5.07;;;1.53;;
18076;SDS011;9165;45.714;11.362;2023-07-13T04:11:20;4.27;;;1.40;;
18076;SDS011;9165;45.714;11.362;2023-07-13T04:13:49;2.50;;;1.40;;
18076;SDS011;9165;45.714;11.362;2023-07-13T04:16:17;1.27;;;1.17;;
18076;SDS011;9165;45.714;11.362;2023-07-13T04:18:44;10.17;;;1.33;;
18076;SDS011;9165;45.714;11.362;2023-07-13T04:21:11;5.80;;;1.50;;
18076;SDS011;9165;45.714;11.362;2023-07-13T04:23:38;5.13;;;1.40;;
18076;SDS011;9165;45.714;11.362;2023-07-13T04:26:05;1.73;;;1.47;;
18076;SDS011;9165;45.714;11.362;2023-07-13T04:28:32;5.80;;;1.80;;
18076;SDS011;9165;45.714;11.362;2023-07-13T04:31:00;2.53;;;1.30;;
18076;SDS011;9165;45.714;11.362;2023-07-13T04:33:27;4.47;;;1.20;;
18076;SDS011;9165;45.714;11.362;2023-07-13T04:35:55;4.73;;;1.80;;
18076;SDS011;9165;45.714;11.362;2023-07-13T04:38:23;5.13;;;1.70;;
18076;SDS011;9165;45.714;11.362;2023-07-13T04:40:50;3.03;;;1.67;;
18076;SDS011;9165;45.714;11.362;2023-07-13T04:43:16;1.90;;;1.27;;
18076;SDS011;9165;45.714;11.362;2023-07-13T04:45:43;2.43;;;1.53;;
18076;SDS011;9165;45.714;11.362;2023-07-13T04:48:11;3.03;;;1.30;;
18076;SDS011;9165;45.714;11.362;2023-07-13T04:50:38;4.83;;;1.50;;
18076;SDS011;9165;45.714;11.362;2023-07-13T04:53:04;3.57;;;1.70;;
18076;SDS011;9165;45.714;11.362;2023-07-13T04:55:31;4.67;;;1.43;;
18076;SDS011;9165;45.714;11.362;2023-07-13T04:57:58;4.80;;;1.40;;
18076;SDS011;9165;45.714;11.362;2023-07-13T05:00:25;2.10;;;1.33;;
18076;SDS011;9165;45.714;11.362;2023-07-13T05:03:05;3.13;;;1.43;;
18076;SDS011;9165;45.714;11.362;2023-07-13T05:05:33;3.87;;;1.60;;
18076;SDS011;9165;45.714;11.362;2023-07-13T05:08:00;4.37;;;1.73;;
18076;SDS011;9165;45.714;11.362;2023-07-13T05:10:27;3.50;;;1.70;;
18076;SDS011;9165;45.714;11.362;2023-07-13T05:12:53;4.73;;;1.53;;
18076;SDS011;9165;45.714;11.362;2023-07-13T05:15:20;1.27;;;1.17;;
18076;SDS011;9165;45.714;11.362;2023-07-13T05:17:47;3.87;;;1.60;;
18076;SDS011;9165;45.714;11.362;2023-07-13T05:20:14;3.00;;;1.20;;
18076;SDS011;9165;45.714;11.362;2023-07-13T05:22:43;1.50;;;1.40;;
18076;SDS011;9165;45.714;11.362;2023-07-13T05:25:12;3.37;;;1.50;;
18076;SDS011;9165;45.714;11.362;2023-07-13T05:27:38;4.37;;;1.60;;
18076;SDS011;9165;45.714;11.362;2023-07-13T05:30:06;2.57;;;1.27;;
18076;SDS011;9165;45.714;11.362;2023-07-13T05:32:36;3.93;;;1.77;;
18076;SDS011;9165;45.714;11.362;2023-07-13T05:35:02;4.20;;;1.77;;
18076;SDS011;9165;45.714;11.362;2023-07-13T05:37:29;5.87;;;1.60;;
18076;SDS011;9165;45.714;11.362;2023-07-13T05:39:58;6.97;;;1.70;;
18076;SDS011;9165;45.714;11.362;2023-07-13T05:42:24;4.47;;;1.77;;
18076;SDS011;9165;45.714;11.362;2023-07-13T05:44:51;2.30;;;1.27;;
18076;SDS011;9165;45.714;11.362;2023-07-13T05:47:18;1.93;;;1.40;;
18076;SDS011;9165;45.714;11.362;2023-07-13T05:49:45;2.13;;;1.30;;
18076;SDS011;9165;45.714;11.362;2023-07-13T05:52:12;2.10;;;1.40;;
18076;SDS011;9165;45.714;11.362;2023-07-13T05:54:39;3.70;;;1.40;;
18076;SDS011;9165;45.714;11.362;2023-07-13T05:57:07;3.23;;;1.20;;
18076;SDS011;9165;45.714;11.362;2023-07-13T05:59:35;3.20;;;1.80;;
18076;SDS011;9165;45.714;11.362;2023-07-13T06:02:02;4.60;;;1.30;;
18076;SDS011;9165;45.714;11.362;2023-07-13T06:04:29;2.23;;;1.40;;
18076;SDS011;9165;45.714;11.362;2023-07-13T06:06:55;1.37;;;1.27;;
18076;SDS011;9165;45.714;11.362;2023-07-13T06:09:22;3.53;;;1.33;;
18076;SDS011;9165;45.714;11.362;2023-07-13T06:11:48;5.73;;;1.60;;
18076;SDS011;9165;45.714;11.362;2023-07-13T06:14:16;2.90;;;1.80;;
18076;SDS011;9165;45.714;11.362;2023-07-13T06:16:43;3.83;;;1.80;;
18076;SDS011;9165;45.714;11.362;2023-07-13T06:19:10;3.87;;;1.40;;
18076;SDS011;9165;45.714;11.362;2023-07-13T06:21:37;3.97;;;1.57;;
18076;SDS011;9165;45.714;11.362;2023-07-13T06:24:04;3.93;;;1.53;;
18076;SDS011;9165;45.714;11.362;2023-07-13T06:26:30;3.70;;;1.57;;
18076;SDS011;9165;45.714;11.362;2023-07-13T06:28:57;4.63;;;1.77;;
18076;SDS011;9165;45.714;11.362;2023-07-13T06:31:25;5.00;;;1.40;;
18076;SDS011;9165;45.714;11.362;2023-07-13T06:33:52;2.63;;;1.60;;
18076;SDS011;9165;45.714;11.362;2023-07-13T06:36:18;1.87;;;1.50;;
18076;SDS011;9165;45.714;11.362;2023-07-13T06:38:45;4.60;;;1.53;;
18076;SDS011;9165;45.714;11.362;2023-07-13T06:41:11;5.90;;;2.23;;
18076;SDS011;9165;45.714;11.362;2023-07-13T06:43:38;3.53;;;1.80;;
18076;SDS011;9165;45.714;11.362;2023-07-13T06:46:05;5.30;;;1.60;;
18076;SDS011;9165;45.714;11.362;2023-07-13T06:48:33;5.83;;;1.80;;
18076;SDS011;9165;45.714;11.362;2023-07-13T06:51:01;2.17;;;1.43;;
18076;SDS011;9165;45.714;11.362;2023-07-13T06:53:28;6.63;;;1.90;;
18076;SDS011;9165;45.714;11.362;2023-07-13T06:55:54;5.07;;;1.40;;
18076;SDS011;9165;45.714;11.362;2023-07-13T06:58:22;5.10;;;1.40;;
18076;SDS011;9165;45.714;11.362;2023-07-13T07:00:50;4.73;;;1.17;;
18076;SDS011;9165;45.714;11.362;2023-07-13T07:03:17;3.03;;;1.60;;
18076;SDS011;9165;45.714;11.362;2023-07-13T07:05:45;3.33;;;1.90;;
18076;SDS011;9165;45.714;11.362;2023-07-13T07:08:12;3.47;;;1.90;;
18076;SDS011;9165;45.714;11.362;2023-07-13T07:10:40;2.97;;;1.40;;
18076;SDS011;9165;45.714;11.362;2023-07-13T07:13:06;3.63;;;1.70;;
18076;SDS011;9165;45.714;11.362;2023-07-13T07:15:34;3.33;;;1.50;;
18076;SDS011;9165;45.714;11.362;2023-07-13T07:18:01;4.63;;;2.03;;
18076;SDS011;9165;45.714;11.362;2023-07-13T07:20:27;5.67;;;2.00;;
18076;SDS011;9165;45.714;11.362;2023-07-13T07:22:57;1.67;;;1.30;;
18076;SDS011;9165;45.714;11.362;2023-07-13T07:25:23;3.07;;;1.60;;
18076;SDS011;9165;45.714;11.362;2023-07-13T07:27:50;4.87;;;1.90;;
18076;SDS011;9165;45.714;11.362;2023-07-13T07:30:19;1.97;;;1.50;;
18076;SDS011;9165;45.714;11.362;2023-07-13T07:32:45;2.40;;;1.53;;
18076;SDS011;9165;45.714;11.362;2023-07-13T07:35:12;3.20;;;1.40;;
18076;SDS011;9165;45.714;11.362;2023-07-13T07:37:38;1.67;;;1.20;;
18076;SDS011;9165;45.714;11.362;2023-07-13T07:40:07;1.50;;;1.40;;
18076;SDS011;9165;45.714;11.362;2023-07-13T07:42:34;4.13;;;1.70;;
18076;SDS011;9165;45.714;11.362;2023-07-13T07:45:01;2.83;;;1.57;;
18076;SDS011;9165;45.714;11.362;2023-07-13T07:47:27;6.27;;;2.70;;
18076;SDS011;9165;45.714;11.362;2023-07-13T07:49:58;4.97;;;1.87;;
18076;SDS011;9165;45.714;11.362;2023-07-13T07:52:25;3.97;;;1.60;;
18076;SDS011;9165;45.714;11.362;2023-07-13T07:54:52;4.40;;;1.77;;
18076;SDS011;9165;45.714;11.362;2023-07-13T07:57:20;2.93;;;1.90;;
18076;SDS011;9165;45.714;11.362;2023-07-13T07:59:47;2.90;;;1.73;;
18076;SDS011;9165;45.714;11.362;2023-07-13T08:02:13;7.87;;;2.67;;
18076;SDS011;9165;45.714;11.362;2023-07-13T08:04:40;6.83;;;2.17;;
18076;SDS011;9165;45.714;11.362;2023-07-13T08:07:07;3.00;;;1.60;;
18076;SDS011;9165;45.714;11.362;2023-07-13T08:09:35;6.17;;;2.73;;
18076;SDS011;9165;45.714;11.362;2023-07-13T08:12:02;6.13;;;2.07;;
18076;SDS011;9165;45.714;11.362;2023-07-13T08:14:30;2.20;;;1.83;;
18076;SDS011;9165;45.714;11.362;2023-07-13T08:16:57;7.17;;;2.30;;
18076;SDS011;9165;45.714;11.362;2023-07-13T08:19:23;5.63;;;1.70;;
18076;SDS011;9165;45.714;11.362;2023-07-13T08:21:50;5.60;;;1.80;;
18076;SDS011;9165;45.714;11.362;2023-07-13T08:24:16;6.97;;;2.00;;
18076;SDS011;9165;45.714;11.362;2023-07-13T08:26:44;7.07;;;2.13;;
18076;SDS011;9165;45.714;11.362;2023-07-13T08:29:11;8.37;;;2.07;;
18076;SDS011;9165;45.714;11.362;2023-07-13T08:31:39;7.00;;;2.17;;
18076;SDS011;9165;45.714;11.362;2023-07-13T08:34:06;5.43;;;2.30;;
18076;SDS011;9165;45.714;11.362;2023-07-13T08:36:32;7.23;;;1.93;;
18076;SDS011;9165;45.714;11.362;2023-07-13T08:38:59;2.43;;;1.90;;
18076;SDS011;9165;45.714;11.362;2023-07-13T08:41:25;4.33;;;1.50;;
18076;SDS011;9165;45.714;11.362;2023-07-13T08:43:57;3.00;;;1.90;;
18076;SDS011;9165;45.714;11.362;2023-07-13T08:46:25;2.50;;;1.47;;
18076;SDS011;9165;45.714;11.362;2023-07-13T08:48:56;4.37;;;1.93;;
18076;SDS011;9165;45.714;11.362;2023-07-13T08:51:28;6.40;;;1.97;;
18076;SDS011;9165;45.714;11.362;2023-07-13T08:53:57;3.63;;;2.00;;
18076;SDS011;9165;45.714;11.362;2023-07-13T08:56:25;2.37;;;1.73;;
18076;SDS011;9165;45.714;11.362;2023-07-13T08:58:54;3.40;;;2.10;;
18076;SDS011;9165;45.714;11.362;2023-07-13T09:01:23;4.13;;;1.60;;
18076;SDS011;9165;45.714;11.362;2023-07-13T09:03:52;6.00;;;1.80;;
18076;SDS011;9165;45.714;11.362;2023-07-13T09:06:23;2.50;;;1.80;;
18076;SDS011;9165;45.714;11.362;2023-07-13T09:08:55;8.97;;;2.03;;
18076;SDS011;9165;45.714;11.362;2023-07-13T09:11:28;4.83;;;1.80;;
18076;SDS011;9165;45.714;11.362;2023-07-13T09:14:00;7.23;;;1.97;;
18076;SDS011;9165;45.714;11.362;2023-07-13T09:16:29;5.93;;;2.07;;
18076;SDS011;9165;45.714;11.362;2023-07-13T09:18:59;8.37;;;2.50;;
18076;SDS011;9165;45.714;11.362;2023-07-13T09:21:30;5.70;;;1.90;;
18076;SDS011;9165;45.714;11.362;2023-07-13T09:23:58;10.73;;;2.07;;
18076;SDS011;9165;45.714;11.362;2023-07-13T09:26:26;5.70;;;2.37;;
18076;SDS011;9165;45.714;11.362;2023-07-13T09:28:55;3.33;;;1.50;;
18076;SDS011;9165;45.714;11.362;2023-07-13T09:31:23;4.10;;;1.80;;
18076;SDS011;9165;45.714;11.362;2023-07-13T09:33:51;3.47;;;1.60;;
18076;SDS011;9165;45.714;11.362;2023-07-13T09:36:18;2.50;;;2.13;;
18076;SDS011;9165;45.714;11.362;2023-07-13T09:38:47;3.60;;;2.57;;
18076;SDS011;9165;45.714;11.362;2023-07-13T09:41:17;4.10;;;1.80;;
18076;SDS011;9165;45.714;11.362;2023-07-13T09:44:01;2.47;;;1.80;;
18076;SDS011;9165;45.714;11.362;2023-07-13T09:46:27;5.57;;;1.97;;
18076;SDS011;9165;45.714;11.362;2023-07-13T09:48:55;2.50;;;1.40;;
18076;SDS011;9165;45.714;11.362;2023-07-13T09:51:22;7.37;;;2.13;;
18076;SDS011;9165;45.714;11.362;2023-07-13T09:53:53;4.73;;;2.00;;
18076;SDS011;9165;45.714;11.362;2023-07-13T09:56:20;3.60;;;2.20;;
18076;SDS011;9165;45.714;11.362;2023-07-13T09:58:47;8.43;;;1.90;;
18076;SDS011;9165;45.714;11.362;2023-07-13T10:01:17;4.73;;;1.53;;
18076;SDS011;9165;45.714;11.362;2023-07-13T10:03:57;2.03;;;1.57;;
18076;SDS011;9165;45.714;11.362;2023-07-13T10:06:23;3.53;;;1.73;;
18076;SDS011;9165;45.714;11.362;2023-07-13T10:08:54;2.83;;;1.80;;
18076;SDS011;9165;45.714;11.362;2023-07-13T10:11:22;4.93;;;1.93;;
18076;SDS011;9165;45.714;11.362;2023-07-13T10:13:53;4.80;;;2.10;;
18076;SDS011;9165;45.714;11.362;2023-07-13T10:16:21;6.10;;;1.83;;
18076;SDS011;9165;45.714;11.362;2023-07-13T10:18:49;3.17;;;1.93;;
18076;SDS011;9165;45.714;11.362;2023-07-13T10:21:17;3.33;;;1.80;;
18076;SDS011;9165;45.714;11.362;2023-07-13T10:23:46;5.93;;;1.60;;
18076;SDS011;9165;45.714;11.362;2023-07-13T10:26:16;4.63;;;2.23;;
18076;SDS011;9165;45.714;11.362;2023-07-13T10:28:45;4.30;;;2.60;;
18076;SDS011;9165;45.714;11.362;2023-07-13T10:31:13;3.97;;;1.80;;
18076;SDS011;9165;45.714;11.362;2023-07-13T10:33:40;4.47;;;2.30;;
18076;SDS011;9165;45.714;11.362;2023-07-13T10:36:12;4.83;;;2.10;;
18076;SDS011;9165;45.714;11.362;2023-07-13T10:38:39;3.27;;;2.33;;
18076;SDS011;9165;45.714;11.362;2023-07-13T10:41:06;3.00;;;2.10;;
18076;SDS011;9165;45.714;11.362;2023-07-13T10:43:36;6.10;;;2.10;;
18076;SDS011;9165;45.714;11.362;2023-07-13T10:46:05;2.53;;;1.23;;
18076;SDS011;9165;45.714;11.362;2023-07-13T10:48:33;1.73;;;1.50;;
18076;SDS011;9165;45.714;11.362;2023-07-13T10:51:02;1.27;;;1.13;;
18076;SDS011;9165;45.714;11.362;2023-07-13T10:53:31;2.30;;;1.57;;
18076;SDS011;9165;45.714;11.362;2023-07-13T10:55:59;2.23;;;1.20;;
18076;SDS011;9165;45.714;11.362;2023-07-13T10:58:32;2.83;;;1.43;;
18076;SDS011;9165;45.714;11.362;2023-07-13T11:01:03;2.03;;;1.10;;
18076;SDS011;9165;45.714;11.362;2023-07-13T11:03:33;3.33;;;1.27;;
18076;SDS011;9165;45.714;11.362;2023-07-13T11:06:08;6.17;;;1.13;;
18076;SDS011;9165;45.714;11.362;2023-07-13T11:08:36;3.50;;;1.43;;
18076;SDS011;9165;45.714;11.362;2023-07-13T11:11:03;1.63;;;1.37;;
18076;SDS011;9165;45.714;11.362;2023-07-13T11:13:57;2.60;;;1.80;;
18076;SDS011;9165;45.714;11.362;2023-07-13T11:16:35;2.60;;;1.77;;
18076;SDS011;9165;45.714;11.362;2023-07-13T11:19:24;2.87;;;1.40;;
18076;SDS011;9165;45.714;11.362;2023-07-13T11:22:10;2.20;;;1.60;;
18076;SDS011;9165;45.714;11.362;2023-07-13T11:24:50;2.20;;;1.50;;
18076;SDS011;9165;45.714;11.362;2023-07-13T11:27:25;2.90;;;1.53;;
18076;SDS011;9165;45.714;11.362;2023-07-13T11:30:06;8.17;;;1.60;;
18076;SDS011;9165;45.714;11.362;2023-07-13T11:32:34;3.10;;;1.80;;
18076;SDS011;9165;45.714;11.362;2023-07-13T11:35:01;2.53;;;1.77;;
18076;SDS011;9165;45.714;11.362;2023-07-13T11:37:28;6.80;;;1.90;;
18076;SDS011;9165;45.714;11.362;2023-07-13T11:39:55;4.83;;;1.90;;
18076;SDS011;9165;45.714;11.362;2023-07-13T11:42:21;1.90;;;1.48;;
18076;SDS011;9165;45.714;11.362;2023-07-13T11:44:50;2.33;;;1.40;;
18076;SDS011;9165;45.714;11.362;2023-07-13T11:47:17;2.03;;;1.40;;
18076;SDS011;9165;45.714;11.362;2023-07-13T11:49:48;2.25;;;1.15;;
18076;SDS011;9165;45.714;11.362;2023-07-13T11:52:15;1.80;;;1.50;;
18076;SDS011;9165;45.714;11.362;2023-07-13T11:54:45;3.22;;;1.52;;
18076;SDS011;9165;45.714;11.362;2023-07-13T11:57:18;5.18;;;1.23;;
18076;SDS011;9165;45.714;11.362;2023-07-13T11:59:46;5.47;;;2.03;;
18076;SDS011;9165;45.714;11.362;2023-07-13T12:02:14;2.05;;;1.60;;
18076;SDS011;9165;45.714;11.362;2023-07-13T12:04:42;4.57;;;1.55;;
18076;SDS011;9165;45.714;11.362;2023-07-13T12:07:14;3.08;;;1.50;;
18076;SDS011;9165;45.714;11.362;2023-07-13T12:09:41;2.45;;;1.52;;
18076;SDS011;9165;45.714;11.362;2023-07-13T12:12:10;6.07;;;1.77;;
18076;SDS011;9165;45.714;11.362;2023-07-13T12:14:37;6.25;;;1.88;;
18076;SDS011;9165;45.714;11.362;2023-07-13T12:17:07;2.55;;;1.52;;
18076;SDS011;9165;45.714;11.362;2023-07-13T12:19:35;4.38;;;1.70;;
18076;SDS011;9165;45.714;11.362;2023-07-13T12:22:01;2.30;;;1.75;;
18076;SDS011;9165;45.714;11.362;2023-07-13T12:24:30;3.78;;;2.08;;
18076;SDS011;9165;45.714;11.362;2023-07-13T12:26:58;6.30;;;1.92;;
18076;SDS011;9165;45.714;11.362;2023-07-13T12:29:26;4.13;;;2.22;;
18076;SDS011;9165;45.714;11.362;2023-07-13T12:31:52;4.00;;;1.90;;
18076;SDS011;9165;45.714;11.362;2023-07-13T12:34:21;3.97;;;1.92;;
18076;SDS011;9165;45.714;11.362;2023-07-13T12:36:48;3.28;;;1.90;;
18076;SDS011;9165;45.714;11.362;2023-07-13T12:39:17;3.38;;;1.70;;
18076;SDS011;9165;45.714;11.362;2023-07-13T12:41:45;4.85;;;2.30;;
18076;SDS011;9165;45.714;11.362;2023-07-13T12:44:12;5.28;;;2.35;;
18076;SDS011;9165;45.714;11.362;2023-07-13T12:46:41;6.15;;;2.50;;
18076;SDS011;9165;45.714;11.362;2023-07-13T12:49:16;4.85;;;2.58;;
18076;SDS011;9165;45.714;11.362;2023-07-13T12:51:44;4.00;;;2.40;;
18076;SDS011;9165;45.714;11.362;2023-07-13T12:54:13;5.15;;;3.00;;
18076;SDS011;9165;45.714;11.362;2023-07-13T12:56:41;4.40;;;2.65;;
18076;SDS011;9165;45.714;11.362;2023-07-13T12:59:18;6.03;;;2.70;;
18076;SDS011;9165;45.714;11.362;2023-07-13T13:01:46;4.80;;;2.55;;
18076;SDS011;9165;45.714;11.362;2023-07-13T13:04:14;5.38;;;2.55;;
18076;SDS011;9165;45.714;11.362;2023-07-13T13:06:41;5.40;;;2.63;;
18076;SDS011;9165;45.714;11.362;2023-07-13T13:09:09;4.13;;;2.38;;
18076;SDS011;9165;45.714;11.362;2023-07-13T13:11:38;4.05;;;2.35;;
18076;SDS011;9165;45.714;11.362;2023-07-13T13:14:05;3.08;;;2.35;;
18076;SDS011;9165;45.714;11.362;2023-07-13T13:16:35;3.65;;;2.00;;
18076;SDS011;9165;45.714;11.362;2023-07-13T13:19:05;5.90;;;2.30;;
18076;SDS011;9165;45.714;11.362;2023-07-13T13:21:38;7.22;;;2.20;;
18076;SDS011;9165;45.714;11.362;2023-07-13T13:24:08;4.32;;;2.58;;
18076;SDS011;9165;45.714;11.362;2023-07-13T13:26:35;4.93;;;2.63;;
18076;SDS011;9165;45.714;11.362;2023-07-13T13:29:04;5.65;;;2.50;;
18076;SDS011;9165;45.714;11.362;2023-07-13T13:31:30;5.53;;;2.50;;
18076;SDS011;9165;45.714;11.362;2023-07-13T13:33:58;6.45;;;2.13;;
18076;SDS011;9165;45.714;11.362;2023-07-13T13:36:25;5.63;;;1.98;;
18076;SDS011;9165;45.714;11.362;2023-07-13T13:38:52;6.38;;;2.10;;
18076;SDS011;9165;45.714;11.362;2023-07-13T13:41:18;4.30;;;2.30;;
18076;SDS011;9165;45.714;11.362;2023-07-13T13:43:45;6.00;;;2.38;;
18076;SDS011;9165;45.714;11.362;2023-07-13T13:46:13;5.82;;;2.47;;
18076;SDS011;9165;45.714;11.362;2023-07-13T13:48:41;3.38;;;2.40;;
18076;SDS011;9165;45.714;11.362;2023-07-13T13:51:14;5.30;;;2.63;;
18076;SDS011;9165;45.714;11.362;2023-07-13T13:53:40;7.80;;;2.80;;
18076;SDS011;9165;45.714;11.362;2023-07-13T13:56:08;3.60;;;2.50;;
18076;SDS011;9165;45.714;11.362;2023-07-13T13:58:34;6.13;;;2.57;;
18076;SDS011;9165;45.714;11.362;2023-07-13T14:01:08;7.03;;;2.60;;
18076;SDS011;9165;45.714;11.362;2023-07-13T14:03:36;6.10;;;3.17;;
18076;SDS011;9165;45.714;11.362;2023-07-13T14:06:03;6.23;;;3.13;;
18076;SDS011;9165;45.714;11.362;2023-07-13T14:08:31;6.27;;;3.07;;
18076;SDS011;9165;45.714;11.362;2023-07-13T14:10:58;5.17;;;2.80;;
18076;SDS011;9165;45.714;11.362;2023-07-13T14:13:25;4.63;;;2.40;;
18076;SDS011;9165;45.714;11.362;2023-07-13T14:15:53;3.93;;;1.90;;
18076;SDS011;9165;45.714;11.362;2023-07-13T14:18:21;3.47;;;2.37;;
18076;SDS011;9165;45.714;11.362;2023-07-13T14:20:49;2.53;;;1.83;;
18076;SDS011;9165;45.714;11.362;2023-07-13T14:23:17;2.50;;;1.63;;
18076;SDS011;9165;45.714;11.362;2023-07-13T14:25:45;5.27;;;1.87;;
18076;SDS011;9165;45.714;11.362;2023-07-13T14:28:19;3.73;;;1.97;;
18076;SDS011;9165;45.714;11.362;2023-07-13T14:30:46;2.57;;;1.60;;
18076;SDS011;9165;45.714;11.362;2023-07-13T14:33:12;2.67;;;1.63;;
18076;SDS011;9165;45.714;11.362;2023-07-13T14:35:39;3.27;;;1.90;;
18076;SDS011;9165;45.714;11.362;2023-07-13T14:38:08;4.93;;;2.00;;
18076;SDS011;9165;45.714;11.362;2023-07-13T14:40:35;7.17;;;1.80;;
18076;SDS011;9165;45.714;11.362;2023-07-13T14:43:03;4.40;;;2.30;;
18076;SDS011;9165;45.714;11.362;2023-07-13T14:45:30;6.73;;;2.60;;
18076;SDS011;9165;45.714;11.362;2023-07-13T14:47:57;7.20;;;2.63;;
18076;SDS011;9165;45.714;11.362;2023-07-13T14:50:26;5.23;;;2.73;;
18076;SDS011;9165;45.714;11.362;2023-07-13T14:52:53;6.23;;;2.50;;